sensor_id;sensor_type;location;lat;lon;timestamp;pressure;altitude;pressure_sealevel;temperature;humidity
73671;BME280;61968;48.178;11.566;2022-12-20T00:00:03;96440.66;;;0.94;50.31
73671;BME280;61968;48.178;11.566;2022-12-20T00:02:30;96432.03;;;0.94;50.68
73671;BME280;61968;48.178;11.566;2022-12-20T00:04:58;96428.63;;;0.93;50.79
73671;BME280;61968;48.178;11.566;2022-12-20T00:07:24;96431.06;;;0.95;50.48
73671;BME280;61968;48.178;11.566;2022-12-20T00:09:51;96432.03;;;0.94;50.52
73671;BME280;61968;48.178;11.566;2022-12-20T00:12:17;96431.84;;;0.95;51.22
73671;BME280;61968;48.178;11.566;2022-12-20T00:14:44;96420.81;;;0.93;50.83
73671;BME280;61968;48.178;11.566;2022-12-20T00:17:10;96432.84;;;0.94;50.99
73671;BME280;61968;48.178;11.566;2022-12-20T00:19:37;96443.75;;;0.98;51.11
73671;BME280;61968;48.178;11.566;2022-12-20T00:22:05;96448.03;;;0.99;50.46
73671;BME280;61968;48.178;11.566;2022-12-20T00:24:32;96434.03;;;1.00;51.03
73671;BME280;61968;48.178;11.566;2022-12-20T00:26:58;96424.91;;;1.04;50.44
73671;BME280;61968;48.178;11.566;2022-12-20T00:29:25;96423.97;;;1.05;50.51
73671;BME280;61968;48.178;11.566;2022-12-20T00:31:51;96422.31;;;1.04;50.84
73671;BME280;61968;48.178;11.566;2022-12-20T00:34:18;96411.59;;;1.07;50.21
73671;BME280;61968;48.178;11.566;2022-12-20T00:36:45;96415.50;;;1.03;50.63
73671;BME280;61968;48.178;11.566;2022-12-20T00:39:13;96418.09;;;1.03;50.73
73671;BME280;61968;48.178;11.566;2022-12-20T00:41:39;96418.75;;;1.05;50.47
73671;BME280;61968;48.178;11.566;2022-12-20T00:44:06;96409.97;;;1.06;50.26
73671;BME280;61968;48.178;11.566;2022-12-20T00:46:32;96400.53;;;1.05;50.32
73671;BME280;61968;48.178;11.566;2022-12-20T00:49:00;96395.97;;;1.07;50.13
73671;BME280;61968;48.178;11.566;2022-12-20T00:51:28;96400.56;;;1.13;50.29
73671;BME280;61968;48.178;11.566;2022-12-20T00:53:56;96410.47;;;1.10;50.59
73671;BME280;61968;48.178;11.566;2022-12-20T00:56:24;96417.63;;;1.08;50.37
73671;BME280;61968;48.178;11.566;2022-12-20T00:58:50;96409.66;;;1.09;50.68
73671;BME280;61968;48.178;11.566;2022-12-20T01:01:19;96418.47;;;1.08;50.62
73671;BME280;61968;48.178;11.566;2022-12-20T01:03:47;96421.69;;;1.10;50.57
73671;BME280;61968;48.178;11.566;2022-12-20T01:06:13;96422.38;;;1.12;50.76
73671;BME280;61968;48.178;11.566;2022-12-20T01:08:40;96422.38;;;1.12;50.50
73671;BME280;61968;48.178;11.566;2022-12-20T01:11:09;96421.41;;;1.13;50.25
73671;BME280;61968;48.178;11.566;2022-12-20T01:13:40;96408.53;;;1.12;50.41
73671;BME280;61968;48.178;11.566;2022-12-20T01:16:09;96410.16;;;1.13;50.73
73671;BME280;61968;48.178;11.566;2022-12-20T01:18:37;96408.53;;;1.12;50.18
73671;BME280;61968;48.178;11.566;2022-12-20T01:21:05;96406.25;;;1.09;50.18
73671;BME280;61968;48.178;11.566;2022-12-20T01:23:32;96416.50;;;1.10;50.72
73671;BME280;61968;48.178;11.566;2022-12-20T01:26:00;96411.16;;;1.12;50.75
73671;BME280;61968;48.178;11.566;2022-12-20T01:28:27;96404.81;;;1.14;50.37
73671;BME280;61968;48.178;11.566;2022-12-20T01:30:55;96404.16;;;1.12;50.81
73671;BME280;61968;48.178;11.566;2022-12-20T01:33:22;96402.22;;;1.14;50.18
73671;BME280;61968;48.178;11.566;2022-12-20T01:35:56;96397.66;;;1.16;50.76
73671;BME280;61968;48.178;11.566;2022-12-20T01:38:24;96395.03;;;1.16;49.97
73671;BME280;61968;48.178;11.566;2022-12-20T01:40:51;96386.28;;;1.17;50.44
73671;BME280;61968;48.178;11.566;2022-12-20T01:43:20;96390.66;;;1.17;50.90
73671;BME280;61968;48.178;11.566;2022-12-20T01:45:47;96389.69;;;1.18;50.28
73671;BME280;61968;48.178;11.566;2022-12-20T01:48:17;96391.19;;;1.20;50.46
73671;BME280;61968;48.178;11.566;2022-12-20T01:50:46;96399.13;;;1.19;50.52
73671;BME280;61968;48.178;11.566;2022-12-20T01:53:14;96399.00;;;1.20;50.72
73671;BME280;61968;48.178;11.566;2022-12-20T01:55:41;96400.75;;;1.20;50.53
73671;BME280;61968;48.178;11.566;2022-12-20T01:58:11;96398.69;;;1.23;50.72
73671;BME280;61968;48.178;11.566;2022-12-20T02:00:38;96397.56;;;1.26;50.72
73671;BME280;61968;48.178;11.566;2022-12-20T02:03:07;96391.50;;;1.25;50.41
73671;BME280;61968;48.178;11.566;2022-12-20T02:05:38;96395.75;;;1.26;50.11
73671;BME280;61968;48.178;11.566;2022-12-20T02:08:05;96389.75;;;1.26;50.23
73671;BME280;61968;48.178;11.566;2022-12-20T02:10:43;96389.75;;;1.26;50.18
73671;BME280;61968;48.178;11.566;2022-12-20T02:13:19;96386.28;;;1.25;50.43
73671;BME280;61968;48.178;11.566;2022-12-20T02:15:53;96389.75;;;1.26;50.94
73671;BME280;61968;48.178;11.566;2022-12-20T02:18:22;96390.56;;;1.26;50.53
73671;BME280;61968;48.178;11.566;2022-12-20T02:21:04;96384.53;;;1.26;50.71
73671;BME280;61968;48.178;11.566;2022-12-20T02:24:01;96384.00;;;1.22;50.88
73671;BME280;61968;48.178;11.566;2022-12-20T02:29:56;96397.38;;;1.27;50.74
73671;BME280;61968;48.178;11.566;2022-12-20T02:32:25;96388.59;;;1.29;50.54
73671;BME280;61968;48.178;11.566;2022-12-20T02:34:53;96395.59;;;1.28;50.33
73671;BME280;61968;48.178;11.566;2022-12-20T02:37:20;96397.38;;;1.27;50.79
73671;BME280;61968;48.178;11.566;2022-12-20T02:39:47;96392.03;;;1.29;50.53
73671;BME280;61968;48.178;11.566;2022-12-20T02:42:17;96386.66;;;1.31;50.67
73671;BME280;61968;48.178;11.566;2022-12-20T02:44:49;96382.94;;;1.33;49.92
73671;BME280;61968;48.178;11.566;2022-12-20T02:47:38;96385.34;;;1.35;50.40
73671;BME280;61968;48.178;11.566;2022-12-20T02:50:08;96391.56;;;1.34;50.03
73671;BME280;61968;48.178;11.566;2022-12-20T02:52:35;96386.34;;;1.34;50.70
73671;BME280;61968;48.178;11.566;2022-12-20T02:55:04;96370.72;;;1.34;50.44
73671;BME280;61968;48.178;11.566;2022-12-20T02:57:37;96363.56;;;1.36;50.63
73671;BME280;61968;48.178;11.566;2022-12-20T03:00:10;96370.41;;;1.37;50.67
73671;BME280;61968;48.178;11.566;2022-12-20T03:02:40;96373.69;;;1.39;50.91
73671;BME280;61968;48.178;11.566;2022-12-20T03:05:26;96378.91;;;1.39;50.81
73671;BME280;61968;48.178;11.566;2022-12-20T03:07:53;96364.75;;;1.41;50.68
73671;BME280;61968;48.178;11.566;2022-12-20T03:10:19;96366.53;;;1.41;50.67
73671;BME280;61968;48.178;11.566;2022-12-20T03:12:46;96361.66;;;1.46;51.04
73671;BME280;61968;48.178;11.566;2022-12-20T03:15:12;96354.53;;;1.48;50.29
73671;BME280;61968;48.178;11.566;2022-12-20T03:17:40;96355.16;;;1.50;50.69
73671;BME280;61968;48.178;11.566;2022-12-20T03:20:08;96367.25;;;1.59;50.60
73671;BME280;61968;48.178;11.566;2022-12-20T03:22:36;96375.06;;;1.59;50.30
73671;BME280;61968;48.178;11.566;2022-12-20T03:25:03;96372.78;;;1.56;50.47
73671;BME280;61968;48.178;11.566;2022-12-20T03:27:30;96370.84;;;1.58;50.55
73671;BME280;61968;48.178;11.566;2022-12-20T03:29:56;96374.78;;;1.62;50.22
73671;BME280;61968;48.178;11.566;2022-12-20T03:32:23;96367.59;;;1.64;50.47
73671;BME280;61968;48.178;11.566;2022-12-20T03:34:51;96358.50;;;1.68;50.54
73671;BME280;61968;48.178;11.566;2022-12-20T03:37:17;96350.34;;;1.63;50.49
73671;BME280;61968;48.178;11.566;2022-12-20T03:39:44;96348.72;;;1.62;50.58
73671;BME280;61968;48.178;11.566;2022-12-20T03:42:10;96338.78;;;1.66;50.02
73671;BME280;61968;48.178;11.566;2022-12-20T03:44:36;96337.66;;;1.68;49.83
73671;BME280;61968;48.178;11.566;2022-12-20T03:47:03;96331.44;;;1.69;50.05
73671;BME280;61968;48.178;11.566;2022-12-20T03:49:30;96321.69;;;1.71;50.08
73671;BME280;61968;48.178;11.566;2022-12-20T03:51:57;96319.25;;;1.78;49.78
73671;BME280;61968;48.178;11.566;2022-12-20T03:54:24;96320.38;;;1.76;50.46
73671;BME280;61968;48.178;11.566;2022-12-20T03:56:50;96332.13;;;1.71;50.29
73671;BME280;61968;48.178;11.566;2022-12-20T03:59:17;96328.34;;;1.74;50.30
73671;BME280;61968;48.178;11.566;2022-12-20T04:01:43;96328.69;;;1.79;50.73
73671;BME280;61968;48.178;11.566;2022-12-20T04:04:11;96331.16;;;1.81;50.46
73671;BME280;61968;48.178;11.566;2022-12-20T04:06:38;96335.22;;;1.75;50.75
73671;BME280;61968;48.178;11.566;2022-12-20T04:09:06;96328.84;;;1.69;50.74
73671;BME280;61968;48.178;11.566;2022-12-20T04:11:33;96331.13;;;1.73;50.02
73671;BME280;61968;48.178;11.566;2022-12-20T04:13:59;96334.88;;;1.78;50.14
73671;BME280;61968;48.178;11.566;2022-12-20T04:16:27;96349.09;;;1.84;50.02
73671;BME280;61968;48.178;11.566;2022-12-20T04:18:54;96352.31;;;1.86;49.92
73671;BME280;61968;48.178;11.566;2022-12-20T04:21:22;96349.41;;;1.89;49.97
73671;BME280;61968;48.178;11.566;2022-12-20T04:23:49;96341.25;;;1.92;49.96
73671;BME280;61968;48.178;11.566;2022-12-20T04:26:17;96342.25;;;1.91;50.29
73671;BME280;61968;48.178;11.566;2022-12-20T04:28:44;96339.31;;;1.94;50.31
73671;BME280;61968;48.178;11.566;2022-12-20T04:31:11;96331.63;;;1.92;50.61
73671;BME280;61968;48.178;11.566;2022-12-20T04:33:37;96336.69;;;1.94;49.91
73671;BME280;61968;48.178;11.566;2022-12-20T04:36:05;96338.00;;;1.98;50.32
73671;BME280;61968;48.178;11.566;2022-12-20T04:38:32;96333.44;;;2.00;50.05
73671;BME280;61968;48.178;11.566;2022-12-20T04:40:58;96332.78;;;1.98;50.50
73671;BME280;61968;48.178;11.566;2022-12-20T04:43:26;96326.59;;;1.91;50.56
73671;BME280;61968;48.178;11.566;2022-12-20T04:45:54;96324.47;;;1.94;50.18
73671;BME280;61968;48.178;11.566;2022-12-20T04:48:22;96325.28;;;1.95;49.88
73671;BME280;61968;48.178;11.566;2022-12-20T04:50:52;96314.38;;;1.91;50.49
73671;BME280;61968;48.178;11.566;2022-12-20T04:53:19;96319.25;;;1.86;50.38
73671;BME280;61968;48.178;11.566;2022-12-20T04:56:03;96325.47;;;1.93;49.93
73671;BME280;61968;48.178;11.566;2022-12-20T04:58:31;96311.44;;;1.94;49.70
73671;BME280;61968;48.178;11.566;2022-12-20T05:00:58;96315.84;;;1.94;49.91
73671;BME280;61968;48.178;11.566;2022-12-20T05:03:25;96313.06;;;1.95;49.99
73671;BME280;61968;48.178;11.566;2022-12-20T05:05:52;96312.25;;;1.95;49.99
73671;BME280;61968;48.178;11.566;2022-12-20T05:08:19;96309.00;;;1.93;49.88
73671;BME280;61968;48.178;11.566;2022-12-20T05:10:46;96297.72;;;1.92;49.90
73671;BME280;61968;48.178;11.566;2022-12-20T05:13:13;96290.22;;;1.89;49.90
73671;BME280;61968;48.178;11.566;2022-12-20T05:15:41;96290.09;;;1.91;50.23
73671;BME280;61968;48.178;11.566;2022-12-20T05:18:08;96279.66;;;1.91;49.98
73671;BME280;61968;48.178;11.566;2022-12-20T05:20:35;96283.06;;;1.91;50.45
73671;BME280;61968;48.178;11.566;2022-12-20T05:23:02;96284.88;;;1.91;50.57
73671;BME280;61968;48.178;11.566;2022-12-20T05:25:47;96287.47;;;1.91;50.52
73671;BME280;61968;48.178;11.566;2022-12-20T05:28:29;96286.50;;;1.92;49.84
73671;BME280;61968;48.178;11.566;2022-12-20T05:30:57;96285.69;;;1.91;50.04
73671;BME280;61968;48.178;11.566;2022-12-20T05:33:24;96279.47;;;1.92;50.53
73671;BME280;61968;48.178;11.566;2022-12-20T05:35:50;96266.94;;;1.88;50.25
73671;BME280;61968;48.178;11.566;2022-12-20T05:38:16;96265.00;;;1.90;51.09
73671;BME280;61968;48.178;11.566;2022-12-20T05:40:43;96260.09;;;1.87;50.36
73671;BME280;61968;48.178;11.566;2022-12-20T05:43:12;96256.66;;;1.86;50.71
73671;BME280;61968;48.178;11.566;2022-12-20T05:45:39;96255.53;;;1.89;51.01
73671;BME280;61968;48.178;11.566;2022-12-20T05:48:07;96261.72;;;1.88;50.93
73671;BME280;61968;48.178;11.566;2022-12-20T05:50:33;96247.06;;;1.87;50.48
73671;BME280;61968;48.178;11.566;2022-12-20T05:53:00;96256.00;;;1.92;50.48
73671;BME280;61968;48.178;11.566;2022-12-20T05:55:27;96246.41;;;1.93;50.71
73671;BME280;61968;48.178;11.566;2022-12-20T05:57:53;96236.94;;;2.00;50.22
73671;BME280;61968;48.178;11.566;2022-12-20T06:00:20;96230.75;;;2.01;50.25
73671;BME280;61968;48.178;11.566;2022-12-20T06:02:46;96250.97;;;1.99;49.99
73671;BME280;61968;48.178;11.566;2022-12-20T06:05:14;96259.13;;;1.96;50.64
73671;BME280;61968;48.178;11.566;2022-12-20T06:07:41;96257.16;;;1.98;50.71
73671;BME280;61968;48.178;11.566;2022-12-20T06:10:09;96255.06;;;2.02;50.72
73671;BME280;61968;48.178;11.566;2022-12-20T06:12:36;96253.88;;;2.04;50.12
73671;BME280;61968;48.178;11.566;2022-12-20T06:15:03;96255.53;;;2.05;50.40
73671;BME280;61968;48.178;11.566;2022-12-20T06:17:29;96248.66;;;2.04;50.75
73671;BME280;61968;48.178;11.566;2022-12-20T06:19:56;96246.06;;;2.04;50.74
73671;BME280;61968;48.178;11.566;2022-12-20T06:22:24;96244.44;;;2.03;50.70
73671;BME280;61968;48.178;11.566;2022-12-20T06:24:50;96247.06;;;2.03;50.29
73671;BME280;61968;48.178;11.566;2022-12-20T06:27:17;96253.06;;;2.04;50.26
73671;BME280;61968;48.178;11.566;2022-12-20T06:29:45;96256.34;;;2.06;50.34
73671;BME280;61968;48.178;11.566;2022-12-20T06:32:16;96254.41;;;2.08;49.95
73671;BME280;61968;48.178;11.566;2022-12-20T06:34:43;96246.25;;;2.11;50.51
73671;BME280;61968;48.178;11.566;2022-12-20T06:37:09;96250.81;;;2.09;50.54
73671;BME280;61968;48.178;11.566;2022-12-20T06:39:37;96254.88;;;2.11;50.27
73671;BME280;61968;48.178;11.566;2022-12-20T06:42:04;96252.56;;;2.16;50.34
73671;BME280;61968;48.178;11.566;2022-12-20T06:44:31;96252.25;;;2.20;50.34
73671;BME280;61968;48.178;11.566;2022-12-20T06:46:57;96262.69;;;2.20;50.82
73671;BME280;61968;48.178;11.566;2022-12-20T06:49:24;96257.66;;;2.18;50.15
73671;BME280;61968;48.178;11.566;2022-12-20T06:51:50;96248.69;;;2.21;49.82
73671;BME280;61968;48.178;11.566;2022-12-20T06:54:17;96249.31;;;2.23;50.60
73671;BME280;61968;48.178;11.566;2022-12-20T06:56:44;96244.09;;;2.23;50.31
73671;BME280;61968;48.178;11.566;2022-12-20T06:59:11;96239.19;;;2.28;50.69
73671;BME280;61968;48.178;11.566;2022-12-20T07:01:38;96244.41;;;2.28;51.21
73671;BME280;61968;48.178;11.566;2022-12-20T07:04:04;96240.81;;;2.29;50.49
73671;BME280;61968;48.178;11.566;2022-12-20T07:06:31;96242.47;;;2.30;50.05
73671;BME280;61968;48.178;11.566;2022-12-20T07:08:57;96238.22;;;2.29;50.61
73671;BME280;61968;48.178;11.566;2022-12-20T07:11:24;96237.41;;;2.28;49.71
73671;BME280;61968;48.178;11.566;2022-12-20T07:13:55;96237.59;;;2.27;49.77
73671;BME280;61968;48.178;11.566;2022-12-20T07:16:22;96227.16;;;2.27;49.75
73671;BME280;61968;48.178;11.566;2022-12-20T07:18:49;96226.47;;;2.25;50.43
73671;BME280;61968;48.178;11.566;2022-12-20T07:21:16;96238.72;;;2.24;49.93
73671;BME280;61968;48.178;11.566;2022-12-20T07:23:43;96239.88;;;2.22;50.10
73671;BME280;61968;48.178;11.566;2022-12-20T07:26:10;96242.47;;;2.22;50.09
73671;BME280;61968;48.178;11.566;2022-12-20T07:28:37;96233.50;;;2.24;50.30
73671;BME280;61968;48.178;11.566;2022-12-20T07:31:05;96234.31;;;2.25;49.79
73671;BME280;61968;48.178;11.566;2022-12-20T07:33:32;96227.28;;;2.25;50.25
73671;BME280;61968;48.178;11.566;2022-12-20T07:36:00;96230.72;;;2.26;50.16
73671;BME280;61968;48.178;11.566;2022-12-20T07:38:26;96231.69;;;2.25;50.24
73671;BME280;61968;48.178;11.566;2022-12-20T07:40:53;96241.34;;;2.24;50.32
73671;BME280;61968;48.178;11.566;2022-12-20T07:43:19;96239.38;;;2.26;51.09
73671;BME280;61968;48.178;11.566;2022-12-20T07:45:46;96250.44;;;2.28;50.83
73671;BME280;61968;48.178;11.566;2022-12-20T07:48:13;96255.50;;;2.30;50.52
73671;BME280;61968;48.178;11.566;2022-12-20T07:50:40;96250.63;;;2.35;50.67
73671;BME280;61968;48.178;11.566;2022-12-20T07:53:08;96257.13;;;2.39;50.69
73671;BME280;61968;48.178;11.566;2022-12-20T07:55:36;96265.44;;;2.43;50.13
73671;BME280;61968;48.178;11.566;2022-12-20T07:58:05;96271.66;;;2.42;50.21
73671;BME280;61968;48.178;11.566;2022-12-20T08:00:33;96273.28;;;2.43;50.02
73671;BME280;61968;48.178;11.566;2022-12-20T08:03:00;96274.13;;;2.35;50.17
73671;BME280;61968;48.178;11.566;2022-12-20T08:05:31;96270.66;;;2.34;50.12
73671;BME280;61968;48.178;11.566;2022-12-20T08:08:00;96271.66;;;2.33;50.59
73671;BME280;61968;48.178;11.566;2022-12-20T08:10:27;96262.34;;;2.39;50.38
73671;BME280;61968;48.178;11.566;2022-12-20T08:12:54;96263.16;;;2.39;50.19
73671;BME280;61968;48.178;11.566;2022-12-20T08:15:22;96260.56;;;2.39;50.12
73671;BME280;61968;48.178;11.566;2022-12-20T08:17:48;96260.72;;;2.38;50.04
73671;BME280;61968;48.178;11.566;2022-12-20T08:20:15;96264.31;;;2.37;49.87
73671;BME280;61968;48.178;11.566;2022-12-20T08:22:42;96265.78;;;2.31;50.37
73671;BME280;61968;48.178;11.566;2022-12-20T08:25:09;96260.06;;;2.36;49.88
73671;BME280;61968;48.178;11.566;2022-12-20T08:27:35;96252.72;;;2.31;49.83
73671;BME280;61968;48.178;11.566;2022-12-20T08:30:02;96247.34;;;2.33;49.67
73671;BME280;61968;48.178;11.566;2022-12-20T08:32:29;96239.34;;;2.34;49.48
73671;BME280;61968;48.178;11.566;2022-12-20T08:34:56;96240.19;;;2.35;49.78
73671;BME280;61968;48.178;11.566;2022-12-20T08:37:22;96246.38;;;2.34;50.45
73671;BME280;61968;48.178;11.566;2022-12-20T08:39:50;96256.47;;;2.37;50.23
73671;BME280;61968;48.178;11.566;2022-12-20T08:42:16;96254.84;;;2.36;50.05
73671;BME280;61968;48.178;11.566;2022-12-20T08:44:43;96246.69;;;2.39;50.86
73671;BME280;61968;48.178;11.566;2022-12-20T08:47:09;96244.91;;;2.39;50.66
73671;BME280;61968;48.178;11.566;2022-12-20T08:49:36;96252.72;;;2.39;50.95
73671;BME280;61968;48.178;11.566;2022-12-20T08:52:02;96263.00;;;2.41;50.48
73671;BME280;61968;48.178;11.566;2022-12-20T08:54:29;96258.41;;;2.43;50.64
73671;BME280;61968;48.178;11.566;2022-12-20T08:56:57;96252.88;;;2.46;50.81
73671;BME280;61968;48.178;11.566;2022-12-20T08:59:23;96252.72;;;2.48;50.28
73671;BME280;61968;48.178;11.566;2022-12-20T09:01:50;96248.31;;;2.48;50.93
73671;BME280;61968;48.178;11.566;2022-12-20T09:04:18;96239.34;;;2.51;50.87
73671;BME280;61968;48.178;11.566;2022-12-20T09:06:44;96240.94;;;2.52;51.29
73671;BME280;61968;48.178;11.566;2022-12-20T09:09:11;96239.16;;;2.52;51.04
73671;BME280;61968;48.178;11.566;2022-12-20T09:11:38;96239.13;;;2.60;50.92
73671;BME280;61968;48.178;11.566;2022-12-20T09:14:05;96226.41;;;2.66;50.99
73671;BME280;61968;48.178;11.566;2022-12-20T09:16:32;96222.94;;;2.65;50.72
73671;BME280;61968;48.178;11.566;2022-12-20T09:19:00;96219.84;;;2.70;51.15
73671;BME280;61968;48.178;11.566;2022-12-20T09:21:27;96211.53;;;2.74;51.01
73671;BME280;61968;48.178;11.566;2022-12-20T09:23:55;96213.47;;;2.80;50.69
73671;BME280;61968;48.178;11.566;2022-12-20T09:26:22;96208.19;;;2.89;50.42
73671;BME280;61968;48.178;11.566;2022-12-20T09:28:49;96215.34;;;2.95;50.52
73671;BME280;61968;48.178;11.566;2022-12-20T09:31:18;96210.59;;;2.98;50.27
73671;BME280;61968;48.178;11.566;2022-12-20T09:33:45;96212.22;;;2.99;50.27
73671;BME280;61968;48.178;11.566;2022-12-20T09:36:13;96201.44;;;3.02;50.05
73671;BME280;61968;48.178;11.566;2022-12-20T09:38:41;96203.03;;;3.12;50.39
73671;BME280;61968;48.178;11.566;2022-12-20T09:41:17;96197.63;;;3.13;50.09
73671;BME280;61968;48.178;11.566;2022-12-20T09:43:45;96186.19;;;3.14;49.98
73671;BME280;61968;48.178;11.566;2022-12-20T09:46:13;96188.28;;;3.19;50.15
73671;BME280;61968;48.178;11.566;2022-12-20T09:48:42;96188.13;;;3.20;49.79
73671;BME280;61968;48.178;11.566;2022-12-20T09:51:21;96183.34;;;3.24;50.32
73671;BME280;61968;48.178;11.566;2022-12-20T09:54:02;96184.00;;;3.26;49.63
73671;BME280;61968;48.178;11.566;2022-12-20T09:56:33;96183.50;;;3.30;50.19
73671;BME280;61968;48.178;11.566;2022-12-20T09:59:03;96176.94;;;3.35;50.06
73671;BME280;61968;48.178;11.566;2022-12-20T10:01:31;96174.81;;;3.38;49.71
73671;BME280;61968;48.178;11.566;2022-12-20T10:04:02;96170.03;;;3.42;49.33
73671;BME280;61968;48.178;11.566;2022-12-20T10:06:41;96177.53;;;3.45;49.87
73671;BME280;61968;48.178;11.566;2022-12-20T10:09:20;96168.66;;;3.54;49.75
73671;BME280;61968;48.178;11.566;2022-12-20T10:12:02;96166.31;;;3.59;49.50
73671;BME280;61968;48.178;11.566;2022-12-20T10:14:43;96168.41;;;3.64;49.67
73671;BME280;61968;48.178;11.566;2022-12-20T10:17:16;96164.09;;;3.71;49.19
73671;BME280;61968;48.178;11.566;2022-12-20T10:20:03;96169.97;;;3.73;49.60
73671;BME280;61968;48.178;11.566;2022-12-20T10:22:37;96162.13;;;3.73;49.76
73671;BME280;61968;48.178;11.566;2022-12-20T10:25:14;96161.13;;;3.74;49.64
73671;BME280;61968;48.178;11.566;2022-12-20T10:27:41;96159.16;;;3.76;49.47
73671;BME280;61968;48.178;11.566;2022-12-20T10:30:12;96164.47;;;3.83;49.70
73671;BME280;61968;48.178;11.566;2022-12-20T10:32:39;96172.81;;;3.86;49.44
73671;BME280;61968;48.178;11.566;2022-12-20T10:35:21;96174.06;;;3.90;49.24
73671;BME280;61968;48.178;11.566;2022-12-20T10:37:56;96169.19;;;3.87;49.37
73671;BME280;61968;48.178;11.566;2022-12-20T10:40:26;96156.41;;;3.92;49.13
73671;BME280;61968;48.178;11.566;2022-12-20T10:42:53;96151.97;;;3.93;48.86
73671;BME280;61968;48.178;11.566;2022-12-20T10:45:27;96146.75;;;3.93;48.86
73671;BME280;61968;48.178;11.566;2022-12-20T10:47:59;96142.88;;;4.04;49.35
73671;BME280;61968;48.178;11.566;2022-12-20T10:50:27;96127.81;;;4.06;48.46
73671;BME280;61968;48.178;11.566;2022-12-20T10:53:18;96128.09;;;4.11;49.51
73671;BME280;61968;48.178;11.566;2022-12-20T10:58:55;96108.78;;;4.12;48.33
73671;BME280;61968;48.178;11.566;2022-12-20T11:01:25;96105.44;;;4.18;48.39
73671;BME280;61968;48.178;11.566;2022-12-20T11:03:58;96106.88;;;4.20;48.30
73671;BME280;61968;48.178;11.566;2022-12-20T11:06:29;96104.34;;;4.27;49.01
73671;BME280;61968;48.178;11.566;2022-12-20T11:09:22;96101.09;;;4.25;48.38
73671;BME280;61968;48.178;11.566;2022-12-20T11:12:14;96094.69;;;4.28;48.85
73671;BME280;61968;48.178;11.566;2022-12-20T11:14:42;96092.16;;;4.34;48.75
73671;BME280;61968;48.178;11.566;2022-12-20T11:17:20;96090.81;;;4.38;48.68
73671;BME280;61968;48.178;11.566;2022-12-20T11:20:03;96092.06;;;4.42;48.78
73671;BME280;61968;48.178;11.566;2022-12-20T11:22:45;96082.66;;;4.48;49.08
73671;BME280;61968;48.178;11.566;2022-12-20T11:25:35;96075.25;;;4.52;48.96
73671;BME280;61968;48.178;11.566;2022-12-20T11:28:16;96073.19;;;4.47;49.08
73671;BME280;61968;48.178;11.566;2022-12-20T11:30:52;96070.38;;;4.49;49.35
73671;BME280;61968;48.178;11.566;2022-12-20T11:33:35;96066.16;;;4.48;49.64
73671;BME280;61968;48.178;11.566;2022-12-20T11:36:04;96058.28;;;4.48;49.72
73671;BME280;61968;48.178;11.566;2022-12-20T11:38:39;96061.78;;;4.55;49.59
73671;BME280;61968;48.178;11.566;2022-12-20T11:41:14;96048.97;;;4.60;49.78
73671;BME280;61968;48.178;11.566;2022-12-20T11:43:54;96050.66;;;4.67;49.61
73671;BME280;61968;48.178;11.566;2022-12-20T11:46:32;96047.13;;;4.75;49.81
73671;BME280;61968;48.178;11.566;2022-12-20T11:49:14;96034.88;;;4.82;49.79
73671;BME280;61968;48.178;11.566;2022-12-20T11:51:47;96033.19;;;4.89;49.72
73671;BME280;61968;48.178;11.566;2022-12-20T11:54:20;96029.19;;;4.94;49.36
73671;BME280;61968;48.178;11.566;2022-12-20T11:56:50;96014.69;;;4.98;49.63
73671;BME280;61968;48.178;11.566;2022-12-20T11:59:24;96011.69;;;5.01;49.32
73671;BME280;61968;48.178;11.566;2022-12-20T12:01:58;96004.31;;;5.04;49.55
73671;BME280;61968;48.178;11.566;2022-12-20T12:04:29;96004.09;;;5.06;49.56
73671;BME280;61968;48.178;11.566;2022-12-20T12:07:00;96008.97;;;5.09;49.18
73671;BME280;61968;48.178;11.566;2022-12-20T12:09:34;96011.22;;;5.12;48.94
73671;BME280;61968;48.178;11.566;2022-12-20T12:12:08;96005.59;;;5.15;48.63
73671;BME280;61968;48.178;11.566;2022-12-20T12:14:49;96003.97;;;5.14;48.58
73671;BME280;61968;48.178;11.566;2022-12-20T12:17:25;96003.22;;;5.20;49.28
73671;BME280;61968;48.178;11.566;2022-12-20T12:19:55;95998.81;;;5.27;49.29
73671;BME280;61968;48.178;11.566;2022-12-20T12:22:32;95991.34;;;5.24;48.68
73671;BME280;61968;48.178;11.566;2022-12-20T12:25:08;95996.16;;;5.21;48.84
73671;BME280;61968;48.178;11.566;2022-12-20T12:27:38;96001.56;;;5.19;48.92
73671;BME280;61968;48.178;11.566;2022-12-20T12:30:05;95994.72;;;5.18;48.95
73671;BME280;61968;48.178;11.566;2022-12-20T12:32:37;95997.94;;;5.13;49.02
73671;BME280;61968;48.178;11.566;2022-12-20T12:35:17;95989.84;;;5.15;49.15
73671;BME280;61968;48.178;11.566;2022-12-20T12:37:54;95994.72;;;5.18;49.38
73671;BME280;61968;48.178;11.566;2022-12-20T12:40:56;95993.13;;;5.17;49.29
73671;BME280;61968;48.178;11.566;2022-12-20T12:43:43;95996.16;;;5.21;49.42
73671;BME280;61968;48.178;11.566;2022-12-20T12:46:12;95997.59;;;5.23;49.21
73671;BME280;61968;48.178;11.566;2022-12-20T12:48:44;95982.25;;;5.20;49.37
73671;BME280;61968;48.178;11.566;2022-12-20T12:51:14;95974.97;;;5.22;49.47
73671;BME280;61968;48.178;11.566;2022-12-20T12:53:49;95969.75;;;5.22;49.47
73671;BME280;61968;48.178;11.566;2022-12-20T12:56:39;95961.28;;;5.20;49.63
73671;BME280;61968;48.178;11.566;2022-12-20T12:59:18;95973.38;;;5.21;49.84
73671;BME280;61968;48.178;11.566;2022-12-20T13:01:49;95963.31;;;5.25;49.87
73671;BME280;61968;48.178;11.566;2022-12-20T13:04:27;95969.13;;;5.20;50.02
73671;BME280;61968;48.178;11.566;2022-12-20T13:06:59;95965.88;;;5.18;50.22
73671;BME280;61968;48.178;11.566;2022-12-20T13:09:40;95965.63;;;5.13;49.99
73671;BME280;61968;48.178;11.566;2022-12-20T13:16:03;95966.41;;;5.07;50.14
73671;BME280;61968;48.178;11.566;2022-12-20T13:18:30;95968.03;;;5.08;50.34
73671;BME280;61968;48.178;11.566;2022-12-20T13:21:17;95965.78;;;5.05;50.62
73671;BME280;61968;48.178;11.566;2022-12-20T13:23:44;95970.06;;;5.12;50.49